sensor_id;sensor_type;location;lat;lon;timestamp;P1;durP1;ratioP1;P2;durP2;ratioP2
9783;SDS011;4931;44.874;-1.092;2022-08-21T00:01:10;5.32;;;1.45;;
9783;SDS011;4931;44.874;-1.092;2022-08-21T00:06:05;4.50;;;1.38;;
9783;SDS011;4931;44.874;-1.092;2022-08-21T00:10:54;4.63;;;1.38;;
9783;SDS011;4931;44.874;-1.092;2022-08-21T00:15:40;7.65;;;1.33;;
9783;SDS011;4931;44.874;-1.092;2022-08-21T00:20:28;7.70;;;1.85;;
9783;SDS011;4931;44.874;-1.092;2022-08-21T00:25:14;6.75;;;1.67;;
9783;SDS011;4931;44.874;-1.092;2022-08-21T00:30:05;2.40;;;1.20;;
9783;SDS011;4931;44.874;-1.092;2022-08-21T00:35:00;6.55;;;1.70;;
9783;SDS011;4931;44.874;-1.092;2022-08-21T00:39:48;2.72;;;1.20;;
9783;SDS011;4931;44.874;-1.092;2022-08-21T00:44:35;6.57;;;1.48;;
9783;SDS011;4931;44.874;-1.092;2022-08-21T00:49:20;5.55;;;1.50;;
9783;SDS011;4931;44.874;-1.092;2022-08-21T00:54:05;4.50;;;1.42;;
9783;SDS011;4931;44.874;-1.092;2022-08-21T00:59:02;2.58;;;1.30;;
9783;SDS011;4931;44.874;-1.092;2022-08-21T01:03:48;4.65;;;1.55;;
9783;SDS011;4931;44.874;-1.092;2022-08-21T01:08:37;4.70;;;1.42;;
9783;SDS011;4931;44.874;-1.092;2022-08-21T01:13:29;4.22;;;1.55;;
9783;SDS011;4931;44.874;-1.092;2022-08-21T01:18:20;4.10;;;1.58;;
9783;SDS011;4931;44.874;-1.092;2022-08-21T01:23:08;6.70;;;1.50;;
9783;SDS011;4931;44.874;-1.092;2022-08-21T01:27:54;5.30;;;1.30;;
9783;SDS011;4931;44.874;-1.092;2022-08-21T01:32:39;4.93;;;1.58;;
9783;SDS011;4931;44.874;-1.092;2022-08-21T01:37:25;4.45;;;1.50;;
9783;SDS011;4931;44.874;-1.092;2022-08-21T01:42:12;4.40;;;1.58;;
9783;SDS011;4931;44.874;-1.092;2022-08-21T01:46:59;5.75;;;1.65;;
9783;SDS011;4931;44.874;-1.092;2022-08-21T01:51:45;6.00;;;1.70;;
9783;SDS011;4931;44.874;-1.092;2022-08-21T01:56:35;3.50;;;1.60;;
9783;SDS011;4931;44.874;-1.092;2022-08-21T02:01:24;4.47;;;1.58;;
9783;SDS011;4931;44.874;-1.092;2022-08-21T02:06:12;7.05;;;1.67;;
9783;SDS011;4931;44.874;-1.092;2022-08-21T02:10:59;2.65;;;1.40;;
9783;SDS011;4931;44.874;-1.092;2022-08-21T02:15:45;5.68;;;1.60;;
9783;SDS011;4931;44.874;-1.092;2022-08-21T02:20:34;2.85;;;1.42;;
9783;SDS011;4931;44.874;-1.092;2022-08-21T02:25:22;4.25;;;1.50;;
9783;SDS011;4931;44.874;-1.092;2022-08-21T02:30:10;4.40;;;1.50;;
9783;SDS011;4931;44.874;-1.092;2022-08-21T02:34:57;6.30;;;1.73;;
9783;SDS011;4931;44.874;-1.092;2022-08-21T02:39:45;6.18;;;1.80;;
9783;SDS011;4931;44.874;-1.092;2022-08-21T02:44:30;4.95;;;1.60;;
9783;SDS011;4931;44.874;-1.092;2022-08-21T02:49:15;3.75;;;1.55;;
9783;SDS011;4931;44.874;-1.092;2022-08-21T02:54:01;5.05;;;1.52;;
9783;SDS011;4931;44.874;-1.092;2022-08-21T02:58:49;5.78;;;1.58;;
9783;SDS011;4931;44.874;-1.092;2022-08-21T03:03:37;7.75;;;1.90;;
9783;SDS011;4931;44.874;-1.092;2022-08-21T03:08:23;4.10;;;1.90;;
9783;SDS011;4931;44.874;-1.092;2022-08-21T03:13:08;4.13;;;1.80;;
9783;SDS011;4931;44.874;-1.092;2022-08-21T03:17:56;4.30;;;1.58;;
9783;SDS011;4931;44.874;-1.092;2022-08-21T03:22:42;8.20;;;1.60;;
9783;SDS011;4931;44.874;-1.092;2022-08-21T03:27:33;4.20;;;1.80;;
9783;SDS011;4931;44.874;-1.092;2022-08-21T03:32:21;4.68;;;1.35;;
9783;SDS011;4931;44.874;-1.092;2022-08-21T03:37:09;5.32;;;1.65;;
9783;SDS011;4931;44.874;-1.092;2022-08-21T03:41:55;3.95;;;1.55;;
9783;SDS011;4931;44.874;-1.092;2022-08-21T03:46:40;3.70;;;1.63;;
9783;SDS011;4931;44.874;-1.092;2022-08-21T03:51:25;4.28;;;1.40;;
9783;SDS011;4931;44.874;-1.092;2022-08-21T03:56:14;6.60;;;2.35;;
9783;SDS011;4931;44.874;-1.092;2022-08-21T04:01:00;4.80;;;1.92;;
9783;SDS011;4931;44.874;-1.092;2022-08-21T04:05:47;2.80;;;1.50;;
9783;SDS011;4931;44.874;-1.092;2022-08-21T04:10:35;3.40;;;1.60;;
9783;SDS011;4931;44.874;-1.092;2022-08-21T04:15:24;3.90;;;1.45;;
9783;SDS011;4931;44.874;-1.092;2022-08-21T04:20:10;3.25;;;1.30;;
9783;SDS011;4931;44.874;-1.092;2022-08-21T04:24:55;5.85;;;1.50;;
9783;SDS011;4931;44.874;-1.092;2022-08-21T04:29:41;4.90;;;1.40;;
9783;SDS011;4931;44.874;-1.092;2022-08-21T04:34:28;2.83;;;1.60;;
9783;SDS011;4931;44.874;-1.092;2022-08-21T04:39:14;3.55;;;1.40;;
9783;SDS011;4931;44.874;-1.092;2022-08-21T04:43:59;4.63;;;1.30;;
9783;SDS011;4931;44.874;-1.092;2022-08-21T04:48:45;3.95;;;1.60;;
9783;SDS011;4931;44.874;-1.092;2022-08-21T04:53:33;3.47;;;1.25;;
9783;SDS011;4931;44.874;-1.092;2022-08-21T04:58:22;5.07;;;1.33;;
9783;SDS011;4931;44.874;-1.092;2022-08-21T05:03:10;3.47;;;1.23;;
9783;SDS011;4931;44.874;-1.092;2022-08-21T05:07:57;3.97;;;1.25;;
9783;SDS011;4931;44.874;-1.092;2022-08-21T05:12:47;4.00;;;1.00;;
9783;SDS011;4931;44.874;-1.092;2022-08-21T05:17:34;3.35;;;1.00;;
9783;SDS011;4931;44.874;-1.092;2022-08-21T05:22:19;2.83;;;1.17;;
9783;SDS011;4931;44.874;-1.092;2022-08-21T05:27:06;4.10;;;1.10;;
9783;SDS011;4931;44.874;-1.092;2022-08-21T05:31:54;3.03;;;1.10;;
9783;SDS011;4931;44.874;-1.092;2022-08-21T05:36:39;3.30;;;1.30;;
9783;SDS011;4931;44.874;-1.092;2022-08-21T05:41:24;5.55;;;1.20;;
9783;SDS011;4931;44.874;-1.092;2022-08-21T05:46:09;3.60;;;1.20;;
9783;SDS011;4931;44.874;-1.092;2022-08-21T05:50:57;2.67;;;1.60;;
9783;SDS011;4931;44.874;-1.092;2022-08-21T05:55:49;2.53;;;1.23;;
9783;SDS011;4931;44.874;-1.092;2022-08-21T06:00:34;3.65;;;1.10;;
9783;SDS011;4931;44.874;-1.092;2022-08-21T06:05:20;2.75;;;1.17;;
9783;SDS011;4931;44.874;-1.092;2022-08-21T06:10:20;4.05;;;1.10;;
9783;SDS011;4931;44.874;-1.092;2022-08-21T06:15:06;5.28;;;1.20;;
9783;SDS011;4931;44.874;-1.092;2022-08-21T06:19:52;5.78;;;1.42;;
9783;SDS011;4931;44.874;-1.092;2022-08-21T06:24:38;5.05;;;1.40;;
9783;SDS011;4931;44.874;-1.092;2022-08-21T06:29:26;1.48;;;0.90;;
9783;SDS011;4931;44.874;-1.092;2022-08-21T06:34:25;4.47;;;0.98;;
9783;SDS011;4931;44.874;-1.092;2022-08-21T06:39:10;3.63;;;1.20;;
9783;SDS011;4931;44.874;-1.092;2022-08-21T06:44:06;2.80;;;0.95;;
9783;SDS011;4931;44.874;-1.092;2022-08-21T06:48:54;2.13;;;1.00;;
9783;SDS011;4931;44.874;-1.092;2022-08-21T06:53:40;2.53;;;0.80;;
9783;SDS011;4931;44.874;-1.092;2022-08-21T06:58:25;3.13;;;0.90;;
9783;SDS011;4931;44.874;-1.092;2022-08-21T07:03:16;1.48;;;0.60;;
9783;SDS011;4931;44.874;-1.092;2022-08-21T07:08:05;2.15;;;0.70;;
9783;SDS011;4931;44.874;-1.092;2022-08-21T07:12:53;2.88;;;1.00;;
9783;SDS011;4931;44.874;-1.092;2022-08-21T07:17:41;1.80;;;0.77;;
9783;SDS011;4931;44.874;-1.092;2022-08-21T07:22:27;2.53;;;0.82;;
9783;SDS011;4931;44.874;-1.092;2022-08-21T07:27:14;1.60;;;0.80;;
9783;SDS011;4931;44.874;-1.092;2022-08-21T07:32:01;1.17;;;0.77;;
9783;SDS011;4931;44.874;-1.092;2022-08-21T07:36:46;1.50;;;0.60;;
9783;SDS011;4931;44.874;-1.092;2022-08-21T07:41:31;2.78;;;0.60;;
9783;SDS011;4931;44.874;-1.092;2022-08-21T07:46:21;0.68;;;0.47;;
9783;SDS011;4931;44.874;-1.092;2022-08-21T07:51:08;1.77;;;0.50;;
9783;SDS011;4931;44.874;-1.092;2022-08-21T07:55:56;2.28;;;0.63;;
9783;SDS011;4931;44.874;-1.092;2022-08-21T08:00:42;1.52;;;0.47;;
9783;SDS011;4931;44.874;-1.092;2022-08-21T08:05:30;2.22;;;0.60;;
9783;SDS011;4931;44.874;-1.092;2022-08-21T08:10:19;0.98;;;0.50;;
9783;SDS011;4931;44.874;-1.092;2022-08-21T08:15:05;1.00;;;0.40;;
9783;SDS011;4931;44.874;-1.092;2022-08-21T08:19:54;1.60;;;0.70;;
9783;SDS011;4931;44.874;-1.092;2022-08-21T08:24:41;2.10;;;0.40;;
9783;SDS011;4931;44.874;-1.092;2022-08-21T08:29:27;1.00;;;0.40;;
9783;SDS011;4931;44.874;-1.092;2022-08-21T08:34:12;2.17;;;0.50;;
9783;SDS011;4931;44.874;-1.092;2022-08-21T08:39:06;1.33;;;0.50;;
9783;SDS011;4931;44.874;-1.092;2022-08-21T08:44:10;0.50;;;0.30;;
9783;SDS011;4931;44.874;-1.092;2022-08-21T08:48:57;1.75;;;0.50;;
9783;SDS011;4931;44.874;-1.092;2022-08-21T08:53:50;2.05;;;0.50;;
9783;SDS011;4931;44.874;-1.092;2022-08-21T08:58:37;1.27;;;0.68;;
9783;SDS011;4931;44.874;-1.092;2022-08-21T09:03:28;1.27;;;0.50;;
9783;SDS011;4931;44.874;-1.092;2022-08-21T09:08:15;1.65;;;0.30;;
9783;SDS011;4931;44.874;-1.092;2022-08-21T09:13:14;1.40;;;0.30;;
9783;SDS011;4931;44.874;-1.092;2022-08-21T09:18:18;0.75;;;0.50;;
9783;SDS011;4931;44.874;-1.092;2022-08-21T09:23:23;1.15;;;0.32;;
9783;SDS011;4931;44.874;-1.092;2022-08-21T09:28:14;1.35;;;0.32;;
9783;SDS011;4931;44.874;-1.092;2022-08-21T09:32:59;2.55;;;0.50;;
9783;SDS011;4931;44.874;-1.092;2022-08-21T09:37:46;0.60;;;0.60;;
9783;SDS011;4931;44.874;-1.092;2022-08-21T09:42:37;1.55;;;0.40;;
9783;SDS011;4931;44.874;-1.092;2022-08-21T09:47:25;1.27;;;0.50;;
9783;SDS011;4931;44.874;-1.092;2022-08-21T09:52:15;1.27;;;0.40;;
9783;SDS011;4931;44.874;-1.092;2022-08-21T09:57:05;0.93;;;0.45;;
9783;SDS011;4931;44.874;-1.092;2022-08-21T10:02:25;0.95;;;0.30;;
9783;SDS011;4931;44.874;-1.092;2022-08-21T10:07:13;0.85;;;0.30;;
9783;SDS011;4931;44.874;-1.092;2022-08-21T10:12:05;1.40;;;0.43;;
9783;SDS011;4931;44.874;-1.092;2022-08-21T10:16:57;0.63;;;0.22;;
9783;SDS011;4931;44.874;-1.092;2022-08-21T10:21:56;0.98;;;0.28;;
9783;SDS011;4931;44.874;-1.092;2022-08-21T10:26:48;2.90;;;0.38;;
9783;SDS011;4931;44.874;-1.092;2022-08-21T10:31:43;1.08;;;0.35;;
9783;SDS011;4931;44.874;-1.092;2022-08-21T10:36:39;1.33;;;0.30;;
9783;SDS011;4931;44.874;-1.092;2022-08-21T10:41:40;0.68;;;0.22;;
9783;SDS011;4931;44.874;-1.092;2022-08-21T10:46:42;0.93;;;0.40;;
9783;SDS011;4931;44.874;-1.092;2022-08-21T10:51:35;0.63;;;0.28;;
9783;SDS011;4931;44.874;-1.092;2022-08-21T10:56:26;0.43;;;0.40;;
9783;SDS011;4931;44.874;-1.092;2022-08-21T11:01:18;0.60;;;0.45;;
9783;SDS011;4931;44.874;-1.092;2022-08-21T11:06:11;0.75;;;0.40;;
9783;SDS011;4931;44.874;-1.092;2022-08-21T11:11:01;0.50;;;0.30;;
9783;SDS011;4931;44.874;-1.092;2022-08-21T11:15:52;2.75;;;0.40;;
9783;SDS011;4931;44.874;-1.092;2022-08-21T11:20:50;0.52;;;0.40;;
9783;SDS011;4931;44.874;-1.092;2022-08-21T11:25:44;2.25;;;0.60;;
9783;SDS011;4931;44.874;-1.092;2022-08-21T11:30:37;1.52;;;0.43;;
9783;SDS011;4931;44.874;-1.092;2022-08-21T11:35:32;2.40;;;1.00;;
9783;SDS011;4931;44.874;-1.092;2022-08-21T11:40:30;2.70;;;1.77;;
9783;SDS011;4931;44.874;-1.092;2022-08-21T11:45:26;1.65;;;0.60;;
9783;SDS011;4931;44.874;-1.092;2022-08-21T11:50:23;1.45;;;0.60;;
9783;SDS011;4931;44.874;-1.092;2022-08-21T11:55:18;1.40;;;0.77;;
9783;SDS011;4931;44.874;-1.092;2022-08-21T12:00:11;1.58;;;0.70;;
9783;SDS011;4931;44.874;-1.092;2022-08-21T12:05:04;2.78;;;0.82;;
9783;SDS011;4931;44.874;-1.092;2022-08-21T12:09:53;2.72;;;1.15;;
9783;SDS011;4931;44.874;-1.092;2022-08-21T12:14:41;2.35;;;0.90;;
9783;SDS011;4931;44.874;-1.092;2022-08-21T12:19:31;1.60;;;0.90;;
9783;SDS011;4931;44.874;-1.092;2022-08-21T12:24:19;3.63;;;1.00;;
9783;SDS011;4931;44.874;-1.092;2022-08-21T12:29:16;2.53;;;0.90;;
9783;SDS011;4931;44.874;-1.092;2022-08-21T12:34:07;5.55;;;0.93;;
9783;SDS011;4931;44.874;-1.092;2022-08-21T12:38:58;4.00;;;1.10;;
9783;SDS011;4931;44.874;-1.092;2022-08-21T12:43:48;3.90;;;0.82;;
9783;SDS011;4931;44.874;-1.092;2022-08-21T12:48:39;1.42;;;0.57;;
9783;SDS011;4931;44.874;-1.092;2022-08-21T12:53:29;2.95;;;0.80;;
9783;SDS011;4931;44.874;-1.092;2022-08-21T12:58:21;1.70;;;0.80;;
9783;SDS011;4931;44.874;-1.092;2022-08-21T13:03:08;2.45;;;0.75;;
9783;SDS011;4931;44.874;-1.092;2022-08-21T13:07:53;1.05;;;0.50;;
9783;SDS011;4931;44.874;-1.092;2022-08-21T13:12:40;2.63;;;0.70;;
9783;SDS011;4931;44.874;-1.092;2022-08-21T13:17:30;2.45;;;0.65;;
9783;SDS011;4931;44.874;-1.092;2022-08-21T13:22:19;1.17;;;0.57;;
9783;SDS011;4931;44.874;-1.092;2022-08-21T13:27:16;3.88;;;0.80;;
9783;SDS011;4931;44.874;-1.092;2022-08-21T13:32:04;0.90;;;0.77;;
9783;SDS011;4931;44.874;-1.092;2022-08-21T13:36:54;2.50;;;0.90;;
9783;SDS011;4931;44.874;-1.092;2022-08-21T13:41:49;3.40;;;0.88;;
9783;SDS011;4931;44.874;-1.092;2022-08-21T13:46:39;2.15;;;0.98;;
9783;SDS011;4931;44.874;-1.092;2022-08-21T13:51:25;1.45;;;0.80;;
9783;SDS011;4931;44.874;-1.092;2022-08-21T13:56:23;2.38;;;0.73;;
9783;SDS011;4931;44.874;-1.092;2022-08-21T14:01:17;5.15;;;1.00;;
9783;SDS011;4931;44.874;-1.092;2022-08-21T14:06:10;4.07;;;1.00;;
9783;SDS011;4931;44.874;-1.092;2022-08-21T14:10:57;3.38;;;0.93;;
9783;SDS011;4931;44.874;-1.092;2022-08-21T14:15:47;3.08;;;0.95;;
9783;SDS011;4931;44.874;-1.092;2022-08-21T14:20:39;1.48;;;0.75;;
9783;SDS011;4931;44.874;-1.092;2022-08-21T14:25:29;2.22;;;1.02;;
9783;SDS011;4931;44.874;-1.092;2022-08-21T14:30:27;2.85;;;1.00;;
9783;SDS011;4931;44.874;-1.092;2022-08-21T14:35:17;1.80;;;0.80;;
9783;SDS011;4931;44.874;-1.092;2022-08-21T14:40:05;2.75;;;0.98;;
9783;SDS011;4931;44.874;-1.092;2022-08-21T14:44:54;2.25;;;0.90;;
9783;SDS011;4931;44.874;-1.092;2022-08-21T14:49:46;1.17;;;0.80;;
9783;SDS011;4931;44.874;-1.092;2022-08-21T14:54:34;2.72;;;0.98;;
9783;SDS011;4931;44.874;-1.092;2022-08-21T14:59:20;2.83;;;0.90;;
9783;SDS011;4931;44.874;-1.092;2022-08-21T15:04:07;2.10;;;1.00;;
9783;SDS011;4931;44.874;-1.092;2022-08-21T15:08:52;1.75;;;0.82;;
9783;SDS011;4931;44.874;-1.092;2022-08-21T15:13:40;2.22;;;1.00;;
9783;SDS011;4931;44.874;-1.092;2022-08-21T15:18:26;4.13;;;1.05;;
9783;SDS011;4931;44.874;-1.092;2022-08-21T15:23:13;3.70;;;0.70;;
9783;SDS011;4931;44.874;-1.092;2022-08-21T15:27:58;2.97;;;0.80;;
9783;SDS011;4931;44.874;-1.092;2022-08-21T15:32:46;3.03;;;0.73;;
9783;SDS011;4931;44.874;-1.092;2022-08-21T15:37:32;1.48;;;0.80;;
9783;SDS011;4931;44.874;-1.092;2022-08-21T15:42:17;1.25;;;0.80;;
9783;SDS011;4931;44.874;-1.092;2022-08-21T15:47:03;1.15;;;0.60;;
9783;SDS011;4931;44.874;-1.092;2022-08-21T15:51:52;2.17;;;0.40;;
9783;SDS011;4931;44.874;-1.092;2022-08-21T15:56:38;2.67;;;0.50;;
9783;SDS011;4931;44.874;-1.092;2022-08-21T16:01:27;1.65;;;0.50;;
9783;SDS011;4931;44.874;-1.092;2022-08-21T16:06:25;2.72;;;0.68;;
9783;SDS011;4931;44.874;-1.092;2022-08-21T16:11:33;1.35;;;0.60;;
9783;SDS011;4931;44.874;-1.092;2022-08-21T16:16:19;2.28;;;0.60;;
9783;SDS011;4931;44.874;-1.092;2022-08-21T16:21:07;1.67;;;0.63;;
9783;SDS011;4931;44.874;-1.092;2022-08-21T16:25:52;1.00;;;0.65;;
9783;SDS011;4931;44.874;-1.092;2022-08-21T16:30:40;1.20;;;0.50;;
9783;SDS011;4931;44.874;-1.092;2022-08-21T16:35:28;2.47;;;0.70;;
9783;SDS011;4931;44.874;-1.092;2022-08-21T16:40:14;1.52;;;0.70;;
9783;SDS011;4931;44.874;-1.092;2022-08-21T16:44:59;1.95;;;0.73;;
9783;SDS011;4931;44.874;-1.092;2022-08-21T16:49:48;2.50;;;0.65;;
9783;SDS011;4931;44.874;-1.092;2022-08-21T16:54:34;1.15;;;0.50;;
9783;SDS011;4931;44.874;-1.092;2022-08-21T16:59:19;3.35;;;0.73;;
9783;SDS011;4931;44.874;-1.092;2022-08-21T17:04:05;2.50;;;0.70;;
9783;SDS011;4931;44.874;-1.092;2022-08-21T17:08:53;1.30;;;0.65;;
9783;SDS011;4931;44.874;-1.092;2022-08-21T17:13:38;1.33;;;0.60;;
9783;SDS011;4931;44.874;-1.092;2022-08-21T17:18:24;2.28;;;0.60;;
9783;SDS011;4931;44.874;-1.092;2022-08-21T17:23:10;7.85;;;3.50;;
9783;SDS011;4931;44.874;-1.092;2022-08-21T17:27:58;4.07;;;0.95;;
9783;SDS011;4931;44.874;-1.092;2022-08-21T17:32:43;3.95;;;0.90;;
9783;SDS011;4931;44.874;-1.092;2022-08-21T17:37:30;3.75;;;0.88;;
9783;SDS011;4931;44.874;-1.092;2022-08-21T17:42:16;15.90;;;6.65;;
9783;SDS011;4931;44.874;-1.092;2022-08-21T17:47:06;1.90;;;0.70;;
9783;SDS011;4931;44.874;-1.092;2022-08-21T17:51:52;2.65;;;0.70;;
9783;SDS011;4931;44.874;-1.092;2022-08-21T17:56:38;4.38;;;0.80;;
9783;SDS011;4931;44.874;-1.092;2022-08-21T18:01:25;3.03;;;1.00;;
9783;SDS011;4931;44.874;-1.092;2022-08-21T18:06:18;3.42;;;0.95;;
9783;SDS011;4931;44.874;-1.092;2022-08-21T18:11:04;3.03;;;0.65;;
9783;SDS011;4931;44.874;-1.092;2022-08-21T18:15:51;2.53;;;0.70;;
9783;SDS011;4931;44.874;-1.092;2022-08-21T18:20:38;4.70;;;0.73;;
9783;SDS011;4931;44.874;-1.092;2022-08-21T18:25:26;2.97;;;0.60;;
9783;SDS011;4931;44.874;-1.092;2022-08-21T18:30:12;3.50;;;0.70;;
9783;SDS011;4931;44.874;-1.092;2022-08-21T18:34:59;3.03;;;0.80;;
9783;SDS011;4931;44.874;-1.092;2022-08-21T18:39:46;5.43;;;1.10;;
9783;SDS011;4931;44.874;-1.092;2022-08-21T18:44:35;2.55;;;0.90;;
9783;SDS011;4931;44.874;-1.092;2022-08-21T18:49:21;3.30;;;0.85;;
9783;SDS011;4931;44.874;-1.092;2022-08-21T18:54:06;3.72;;;1.05;;
9783;SDS011;4931;44.874;-1.092;2022-08-21T18:59:12;3.28;;;0.90;;
9783;SDS011;4931;44.874;-1.092;2022-08-21T19:04:01;5.00;;;0.95;;
9783;SDS011;4931;44.874;-1.092;2022-08-21T19:08:49;3.92;;;1.15;;
9783;SDS011;4931;44.874;-1.092;2022-08-21T19:13:36;1.80;;;0.80;;
9783;SDS011;4931;44.874;-1.092;2022-08-21T19:18:23;4.97;;;1.20;;
9783;SDS011;4931;44.874;-1.092;2022-08-21T19:23:13;3.00;;;1.52;;
9783;SDS011;4931;44.874;-1.092;2022-08-21T19:28:12;4.07;;;1.83;;
9783;SDS011;4931;44.874;-1.092;2022-08-21T19:33:01;3.45;;;1.50;;
9783;SDS011;4931;44.874;-1.092;2022-08-21T19:37:48;3.20;;;1.60;;
9783;SDS011;4931;44.874;-1.092;2022-08-21T19:42:36;2.20;;;1.50;;
9783;SDS011;4931;44.874;-1.092;2022-08-21T19:47:21;4.82;;;1.75;;
9783;SDS011;4931;44.874;-1.092;2022-08-21T19:52:09;5.40;;;1.40;;
9783;SDS011;4931;44.874;-1.092;2022-08-21T19:56:57;3.00;;;1.50;;
9783;SDS011;4931;44.874;-1.092;2022-08-21T20:01:47;4.88;;;1.38;;
9783;SDS011;4931;44.874;-1.092;2022-08-21T20:06:33;5.22;;;1.85;;
9783;SDS011;4931;44.874;-1.092;2022-08-21T20:11:21;5.95;;;1.88;;
9783;SDS011;4931;44.874;-1.092;2022-08-21T20:16:12;3.30;;;1.50;;
9783;SDS011;4931;44.874;-1.092;2022-08-21T20:21:00;5.10;;;1.95;;
9783;SDS011;4931;44.874;-1.092;2022-08-21T20:25:46;7.55;;;1.63;;
9783;SDS011;4931;44.874;-1.092;2022-08-21T20:30:32;3.83;;;1.70;;
9783;SDS011;4931;44.874;-1.092;2022-08-21T20:35:27;4.18;;;1.95;;
9783;SDS011;4931;44.874;-1.092;2022-08-21T20:40:15;4.70;;;2.08;;
9783;SDS011;4931;44.874;-1.092;2022-08-21T20:45:22;4.65;;;2.28;;
9783;SDS011;4931;44.874;-1.092;2022-08-21T20:50:09;4.78;;;2.15;;
9783;SDS011;4931;44.874;-1.092;2022-08-21T20:54:58;4.38;;;1.83;;
9783;SDS011;4931;44.874;-1.092;2022-08-21T20:59:51;7.38;;;2.10;;
9783;SDS011;4931;44.874;-1.092;2022-08-21T21:04:42;2.90;;;2.13;;
9783;SDS011;4931;44.874;-1.092;2022-08-21T21:09:32;2.95;;;1.95;;
9783;SDS011;4931;44.874;-1.092;2022-08-21T21:14:24;5.10;;;2.35;;
9783;SDS011;4931;44.874;-1.092;2022-08-21T21:19:25;11.68;;;4.80;;
9783;SDS011;4931;44.874;-1.092;2022-08-21T21:24:18;5.13;;;2.10;;
9783;SDS011;4931;44.874;-1.092;2022-08-21T21:29:11;4.00;;;2.10;;
9783;SDS011;4931;44.874;-1.092;2022-08-21T21:33:59;4.93;;;2.50;;
9783;SDS011;4931;44.874;-1.092;2022-08-21T21:38:49;5.30;;;2.47;;
9783;SDS011;4931;44.874;-1.092;2022-08-21T21:43:55;5.28;;;2.22;;
9783;SDS011;4931;44.874;-1.092;2022-08-21T21:48:54;5.03;;;2.53;;
9783;SDS011;4931;44.874;-1.092;2022-08-21T21:54:04;9.30;;;5.07;;
9783;SDS011;4931;44.874;-1.092;2022-08-21T22:04:15;10.35;;;4.28;;
9783;SDS011;4931;44.874;-1.092;2022-08-21T22:09:13;7.40;;;4.13;;
9783;SDS011;4931;44.874;-1.092;2022-08-21T22:14:05;5.13;;;3.05;;
9783;SDS011;4931;44.874;-1.092;2022-08-21T22:18:55;4.13;;;2.60;;
9783;SDS011;4931;44.874;-1.092;2022-08-21T22:23:48;7.40;;;2.75;;
9783;SDS011;4931;44.874;-1.092;2022-08-21T22:28:39;6.68;;;2.60;;
9783;SDS011;4931;44.874;-1.092;2022-08-21T22:38:14;7.97;;;3.00;;
9783;SDS011;4931;44.874;-1.092;2022-08-21T22:43:03;5.35;;;3.40;;
9783;SDS011;4931;44.874;-1.092;2022-08-21T22:47:53;6.72;;;3.05;;
9783;SDS011;4931;44.874;-1.092;2022-08-21T22:52:42;6.80;;;3.20;;
9783;SDS011;4931;44.874;-1.092;2022-08-21T22:57:31;6.95;;;3.25;;
9783;SDS011;4931;44.874;-1.092;2022-08-21T23:02:23;8.93;;;3.63;;
9783;SDS011;4931;44.874;-1.092;2022-08-21T23:07:37;6.15;;;3.63;;
9783;SDS011;4931;44.874;-1.092;2022-08-21T23:12:32;7.75;;;3.50;;
9783;SDS011;4931;44.874;-1.092;2022-08-21T23:17:28;6.00;;;3.60;;
9783;SDS011;4931;44.874;-1.092;2022-08-21T23:22:30;7.22;;;3.25;;
9783;SDS011;4931;44.874;-1.092;2022-08-21T23:27:29;9.70;;;3.30;;
9783;SDS011;4931;44.874;-1.092;2022-08-21T23:32:29;6.22;;;3.60;;
9783;SDS011;4931;44.874;-1.092;2022-08-21T23:37:48;9.88;;;3.78;;
9783;SDS011;4931;44.874;-1.092;2022-08-21T23:43:02;7.80;;;4.30;;
9783;SDS011;4931;44.874;-1.092;2022-08-21T23:48:06;8.55;;;3.95;;
9783;SDS011;4931;44.874;-1.092;2022-08-21T23:53:13;9.07;;;3.58;;
9783;SDS011;4931;44.874;-1.092;2022-08-21T23:58:14;10.70;;;4.03;;
